createdAt,value
2022-08-04T00:00:02.049Z,9.309219
2022-08-04T00:01:02.217Z,9.309196
2022-08-04T00:02:02.127Z,9.309249
2022-08-04T00:03:02.141Z,9.309209
2022-08-04T00:04:01.987Z,9.309140
2022-08-04T00:05:02.192Z,9.309102
2022-08-04T00:06:01.989Z,9.309119
2022-08-04T00:07:01.987Z,9.309087
2022-08-04T00:08:01.968Z,9.309122
2022-08-04T00:09:01.929Z,9.309109
2022-08-04T00:10:01.869Z,9.309133
2022-08-04T00:11:01.911Z,9.309103
2022-08-04T00:12:01.865Z,9.309122
2022-08-04T00:13:01.849Z,9.309110
2022-08-04T00:14:03.108Z,9.309175
2022-08-04T00:15:01.836Z,9.309214
2022-08-04T00:16:01.861Z,9.309127
2022-08-04T00:17:01.809Z,9.309138
2022-08-04T00:18:01.797Z,9.309115
2022-08-04T00:19:01.764Z,9.309206
2022-08-04T00:20:02.126Z,9.309102
2022-08-04T00:21:01.777Z,9.309107
2022-08-04T00:22:01.825Z,9.309120
2022-08-04T00:23:01.800Z,9.309080
2022-08-04T00:24:11.358Z,9.309076
2022-08-04T00:25:02.748Z,9.309094
2022-08-04T00:26:01.774Z,9.309066
2022-08-04T00:27:01.830Z,9.309055
2022-08-04T00:28:01.788Z,9.309075
2022-08-04T00:29:01.788Z,9.309087
2022-08-04T00:30:01.783Z,9.309163
2022-08-04T00:31:01.759Z,9.309181
2022-08-04T00:32:01.768Z,9.309175
2022-08-04T00:33:02.776Z,9.309227
2022-08-04T00:34:02.755Z,9.309155
2022-08-04T00:35:01.824Z,9.309143
2022-08-04T00:36:01.747Z,9.309093
2022-08-04T00:37:01.704Z,9.309088
2022-08-04T00:38:01.783Z,9.309072
2022-08-04T00:39:01.731Z,9.309072
2022-08-04T00:40:01.706Z,9.309114
2022-08-04T00:41:01.768Z,9.309102
2022-08-04T00:42:01.710Z,9.309090
2022-08-04T00:43:01.736Z,9.309075
2022-08-04T00:44:01.733Z,9.309115
2022-08-04T00:45:02.664Z,9.309132
2022-08-04T00:46:17.599Z,9.309069
2022-08-04T00:47:02.616Z,9.309194
2022-08-04T00:48:01.653Z,9.309119
2022-08-04T00:49:01.791Z,9.309178
2022-08-04T00:50:01.643Z,9.309067
2022-08-04T00:51:01.621Z,9.309080
2022-08-04T00:52:32.599Z,9.309075
2022-08-04T00:53:02.553Z,9.309112
2022-08-04T00:54:01.600Z,9.309161
2022-08-04T00:55:03.307Z,9.309104
2022-08-04T00:56:03.647Z,9.309166
2022-08-04T00:57:01.649Z,9.309102
2022-08-04T00:58:01.610Z,9.309063
2022-08-04T00:59:01.575Z,9.309086
2022-08-04T01:00:01.653Z,9.309079
2022-08-04T01:01:01.652Z,9.309069
2022-08-04T01:02:01.587Z,9.309064
2022-08-04T01:03:01.527Z,9.309088
2022-08-04T01:04:01.601Z,9.309169
2022-08-04T01:05:01.513Z,9.309158
2022-08-04T01:06:01.623Z,9.309115
2022-08-04T01:07:01.484Z,9.309120
2022-08-04T01:08:01.621Z,9.309196
2022-08-04T01:09:02.405Z,9.309154
2022-08-04T01:10:01.464Z,9.309134
2022-08-04T01:11:01.495Z,9.309134
2022-08-04T01:12:01.437Z,9.309155
2022-08-04T01:13:01.391Z,9.309203
2022-08-04T01:14:01.397Z,9.309183
2022-08-04T01:15:01.365Z,9.309064
2022-08-04T01:16:01.350Z,9.309102
2022-08-04T01:17:01.454Z,9.309052
2022-08-04T01:18:01.373Z,9.309057
2022-08-04T01:19:01.396Z,9.309081
2022-08-04T01:20:01.354Z,9.309092
2022-08-04T01:21:01.359Z,9.309111
2022-08-04T01:22:01.416Z,9.309096
2022-08-04T01:23:01.329Z,9.309099
2022-08-04T01:24:01.369Z,9.309101
2022-08-04T01:25:02.135Z,9.309089
2022-08-04T01:26:01.272Z,9.309112
2022-08-04T01:27:01.475Z,9.309130
2022-08-04T01:28:02.436Z,9.309048
2022-08-04T01:29:01.427Z,9.309090
2022-08-04T01:30:01.313Z,9.309118
2022-08-04T01:31:01.334Z,9.309124
2022-08-04T01:32:01.423Z,9.309107
2022-08-04T01:33:01.343Z,9.309096
2022-08-04T01:34:04.278Z,9.309093
2022-08-04T01:35:02.201Z,9.308994
2022-08-04T01:36:01.292Z,9.309013
2022-08-04T01:37:01.255Z,9.309034
2022-08-04T01:38:01.285Z,9.309096
2022-08-04T01:39:01.287Z,9.309060
2022-08-04T01:40:01.253Z,9.309044
2022-08-04T01:41:01.229Z,9.309063
2022-08-04T01:42:01.232Z,9.309091
2022-08-04T01:43:01.218Z,9.309115
2022-08-04T01:44:01.346Z,9.309034
2022-08-04T01:45:01.213Z,9.309088
2022-08-04T01:46:01.257Z,9.309078
2022-08-04T01:47:02.217Z,9.309101
2022-08-04T01:48:01.272Z,9.309060
2022-08-04T01:49:01.205Z,9.309043
2022-08-04T01:50:01.115Z,9.309033
2022-08-04T01:51:01.086Z,9.309131
2022-08-04T01:52:01.083Z,9.309115
2022-08-04T01:53:01.079Z,9.308989
2022-08-04T01:54:01.155Z,9.309160
2022-08-04T01:55:01.154Z,9.309118
2022-08-04T01:56:01.107Z,9.309086
2022-08-04T01:57:01.099Z,9.309064
2022-08-04T01:58:02.075Z,9.308991
2022-08-04T01:59:01.069Z,9.309050
2022-08-04T02:00:01.119Z,9.309118
2022-08-04T02:01:01.179Z,9.309102
2022-08-04T02:02:01.175Z,9.309084
2022-08-04T02:03:01.138Z,9.308997
2022-08-04T02:04:21.505Z,9.309000
2022-08-04T02:05:02.263Z,9.309113
2022-08-04T02:06:02.620Z,9.309137
2022-08-04T02:07:01.060Z,9.309177
2022-08-04T02:08:01.074Z,9.309158
2022-08-04T02:09:01.128Z,9.309166
2022-08-04T02:10:01.019Z,9.309130
2022-08-04T02:11:01.146Z,9.309132
2022-08-04T02:12:01.039Z,9.309087
2022-08-04T02:13:02.067Z,9.309065
2022-08-04T02:14:00.998Z,9.309075
2022-08-04T02:15:01.116Z,9.309149
2022-08-04T02:16:01.040Z,9.309170
2022-08-04T02:17:01.007Z,9.309254
2022-08-04T02:18:01.013Z,9.309145
2022-08-04T02:19:00.954Z,9.309153
2022-08-04T02:20:00.943Z,9.309135
2022-08-04T02:21:00.944Z,9.309117
2022-08-04T02:22:01.030Z,9.309108
2022-08-04T02:23:00.940Z,9.309130
2022-08-04T02:24:00.862Z,9.309086
2022-08-04T02:25:00.896Z,9.309096
2022-08-04T02:26:00.860Z,9.309118
2022-08-04T02:27:00.872Z,9.308949
2022-08-04T02:28:01.188Z,9.309040
2022-08-04T02:29:02.386Z,9.309119
2022-08-04T02:30:00.961Z,9.309163
2022-08-04T02:31:00.855Z,9.309134
2022-08-04T02:32:00.980Z,9.309116
2022-08-04T02:33:00.863Z,9.309110
2022-08-04T02:34:00.931Z,9.309115
2022-08-04T02:35:00.879Z,9.309187
2022-08-04T02:36:02.327Z,9.309114
2022-08-04T02:37:00.844Z,9.309087
2022-08-04T02:38:00.882Z,9.309009
2022-08-04T02:39:00.872Z,9.309060
2022-08-04T02:40:00.814Z,9.309047
2022-08-04T02:41:00.794Z,9.309098
2022-08-04T02:42:00.841Z,9.309078
2022-08-04T02:43:00.889Z,9.309077
2022-08-04T02:44:00.804Z,9.309094
2022-08-04T02:45:00.848Z,9.309125
2022-08-04T02:46:00.917Z,9.309188
2022-08-04T02:47:00.866Z,9.309142
2022-08-04T02:48:29.062Z,9.309076
2022-08-04T02:49:02.767Z,9.309175
2022-08-04T02:50:00.731Z,9.309166
2022-08-04T02:51:00.807Z,9.309110
2022-08-04T02:52:00.750Z,9.309050
2022-08-04T02:53:00.795Z,9.309008
2022-08-04T02:54:00.765Z,9.308953
2022-08-04T02:55:00.780Z,9.308944
2022-08-04T02:56:00.723Z,9.308949
2022-08-04T02:57:00.827Z,9.309002
2022-08-04T02:58:00.686Z,9.309009
2022-08-04T02:59:00.846Z,9.309014
2022-08-04T03:00:00.682Z,9.309027
2022-08-04T03:01:00.794Z,9.309025
2022-08-04T03:02:00.571Z,9.308996
2022-08-04T03:03:00.587Z,9.308972
2022-08-04T03:04:00.575Z,9.308938
2022-08-04T03:05:00.637Z,9.308937
2022-08-04T03:06:01.774Z,9.308942
2022-08-04T03:07:00.573Z,9.308941
2022-08-04T03:08:00.578Z,9.308973
2022-08-04T03:09:00.600Z,9.308966
2022-08-04T03:10:00.643Z,9.308962
2022-08-04T03:11:00.567Z,9.308950
2022-08-04T03:12:00.555Z,9.308909
2022-08-04T03:13:00.536Z,9.308908
2022-08-04T03:14:00.598Z,9.308940
2022-08-04T03:15:00.595Z,9.309004
2022-08-04T03:16:00.695Z,9.309020
2022-08-04T03:17:00.578Z,9.308993
2022-08-04T03:18:00.620Z,9.309035
2022-08-04T03:19:00.554Z,9.309005
2022-08-04T03:20:00.641Z,9.308967
2022-08-04T03:21:00.570Z,9.309000
2022-08-04T03:22:00.630Z,9.309011
2022-08-04T03:23:13.061Z,9.308964
2022-08-04T03:24:02.556Z,9.308993
2022-08-04T03:25:00.535Z,9.309004
2022-08-04T03:26:01.628Z,9.308990
2022-08-04T03:27:00.482Z,9.308969
2022-08-04T03:28:00.495Z,9.308958
2022-08-04T03:29:00.497Z,9.308982
2022-08-04T03:30:00.458Z,9.309043
2022-08-04T03:31:00.483Z,9.308978
2022-08-04T03:32:00.530Z,9.308870
2022-08-04T03:33:00.448Z,9.308903
2022-08-04T03:34:00.479Z,9.308966
2022-08-04T03:35:01.399Z,9.308984
2022-08-04T03:36:00.470Z,9.309025
2022-08-04T03:37:00.450Z,9.308992
2022-08-04T03:38:00.452Z,9.309066
2022-08-04T03:39:00.554Z,9.308904
2022-08-04T03:40:00.409Z,9.308971
2022-08-04T03:41:01.402Z,9.309009
2022-08-04T03:42:04.093Z,9.309099
2022-08-04T03:43:00.476Z,9.309034
2022-08-04T03:44:00.390Z,9.308933
2022-08-04T03:45:00.485Z,9.308915
2022-08-04T03:46:00.371Z,9.308965
2022-08-04T03:47:00.389Z,9.308985
2022-08-04T03:48:00.419Z,9.308908
2022-08-04T03:49:00.336Z,9.308951
2022-08-04T03:50:00.356Z,9.308926
2022-08-04T03:51:00.311Z,9.309001
2022-08-04T03:52:00.333Z,9.308973
2022-08-04T03:53:00.341Z,9.308882
2022-08-04T03:54:00.355Z,9.308969
2022-08-04T03:55:00.306Z,9.308957
2022-08-04T03:56:00.301Z,9.308940
2022-08-04T03:57:00.304Z,9.309015
2022-08-04T03:58:00.287Z,9.309019
2022-08-04T03:59:00.343Z,9.309035
2022-08-04T04:00:00.338Z,9.309032
2022-08-04T04:01:00.278Z,9.309037
2022-08-04T04:02:02.247Z,9.309060
2022-08-04T04:03:01.271Z,9.309033
2022-08-04T04:04:00.326Z,9.309055
2022-08-04T04:05:01.043Z,9.309085
2022-08-04T04:06:02.306Z,9.309039
2022-08-04T04:07:00.138Z,9.309079
2022-08-04T04:08:01.878Z,9.309050
2022-08-04T04:09:01.129Z,9.309001
2022-08-04T04:10:05.771Z,9.309013
2022-08-04T04:11:01.094Z,9.308996
2022-08-04T04:12:00.104Z,9.308957
2022-08-04T04:13:00.095Z,9.308945
2022-08-04T04:14:00.073Z,9.309011
2022-08-04T04:15:00.293Z,9.308979
2022-08-04T04:16:00.077Z,9.309000
2022-08-04T04:17:00.058Z,9.309057
2022-08-04T04:18:00.068Z,9.309046
2022-08-04T04:19:00.182Z,9.309020
2022-08-04T04:20:00.133Z,9.309088
2022-08-04T04:21:00.197Z,9.309012
2022-08-04T04:22:00.154Z,9.309031
2022-08-04T04:23:00.233Z,9.309057
2022-08-04T04:24:00.117Z,9.309018
2022-08-04T04:25:00.175Z,9.309011
2022-08-04T04:26:00.116Z,9.308955
2022-08-04T04:27:00.174Z,9.309004
2022-08-04T04:28:45.692Z,9.309032
2022-08-04T04:29:03.397Z,9.308988
2022-08-04T04:30:01.065Z,9.308992
2022-08-04T04:31:00.062Z,9.308968
2022-08-04T04:32:00.074Z,9.308982
2022-08-04T04:33:00.015Z,9.308985
2022-08-04T04:34:00.104Z,9.308989
2022-08-04T04:35:00.069Z,9.309013
2022-08-04T04:36:00.032Z,9.308976
2022-08-04T04:37:00.049Z,9.309005
2022-08-04T04:38:00.001Z,9.309008
2022-08-04T04:39:00.063Z,9.309061
2022-08-04T04:39:59.994Z,9.309085
2022-08-04T04:40:59.993Z,9.309002
2022-08-04T04:41:59.960Z,9.309077
2022-08-04T04:42:59.987Z,9.309157
2022-08-04T04:44:00.016Z,9.309147
2022-08-04T04:44:59.936Z,9.308985
2022-08-04T04:46:00.934Z,9.308965
2022-08-04T04:46:59.944Z,9.308924
2022-08-04T04:48:08.441Z,9.308895
2022-08-04T04:49:00.972Z,9.308967
2022-08-04T04:50:00.012Z,9.308976
2022-08-04T04:50:59.905Z,9.309007
2022-08-04T04:52:00.016Z,9.309018
2022-08-04T04:52:59.901Z,9.309032
2022-08-04T04:54:00.690Z,9.309026
2022-08-04T04:54:59.915Z,9.309003
2022-08-04T04:55:59.861Z,9.309037
2022-08-04T04:56:59.900Z,9.309025
2022-08-04T04:57:59.853Z,9.308940
2022-08-04T04:58:59.909Z,9.308984
2022-08-04T04:59:59.847Z,9.308994
2022-08-04T05:00:59.848Z,9.308997
2022-08-04T05:01:59.891Z,9.308991
2022-08-04T05:03:01.657Z,9.308994
2022-08-04T05:04:00.892Z,9.309078
2022-08-04T05:05:00.826Z,9.309045
2022-08-04T05:06:00.793Z,9.309008
2022-08-04T05:06:59.846Z,9.309044
2022-08-04T05:07:59.792Z,9.309087
2022-08-04T05:09:00.713Z,9.309065
2022-08-04T05:09:59.810Z,9.309040
2022-08-04T05:10:59.869Z,9.309070
2022-08-04T05:11:59.694Z,9.309010
2022-08-04T05:14:37.120Z,9.309017
2022-08-04T05:14:38.963Z,9.308995
2022-08-04T05:15:00.990Z,9.308980
2022-08-04T05:15:59.655Z,9.309056
2022-08-04T05:16:59.720Z,9.308994
2022-08-04T05:17:59.736Z,9.309008
2022-08-04T05:18:59.623Z,9.309101
2022-08-04T05:19:59.724Z,9.309138
2022-08-04T05:20:59.822Z,9.309077
2022-08-04T05:21:59.723Z,9.309054
2022-08-04T05:22:59.652Z,9.309028
2022-08-04T05:23:59.703Z,9.309093
2022-08-04T05:24:59.698Z,9.309053
2022-08-04T05:26:00.248Z,9.309044
2022-08-04T05:26:59.669Z,9.309039
2022-08-04T05:27:59.654Z,9.309038
2022-08-04T05:28:59.659Z,9.309027
2022-08-04T05:29:59.689Z,9.309037
2022-08-04T05:30:59.650Z,9.309041
2022-08-04T05:31:59.815Z,9.309014
2022-08-04T05:33:00.101Z,9.309041
2022-08-04T05:33:59.716Z,9.309054
2022-08-04T05:34:59.631Z,9.309025
2022-08-04T05:36:17.056Z,9.309047
2022-08-04T05:37:00.564Z,9.308990
2022-08-04T05:38:01.626Z,9.308987
2022-08-04T05:38:59.659Z,9.309000
2022-08-04T05:39:59.619Z,9.309015
2022-08-04T05:40:59.623Z,9.308987
2022-08-04T05:42:04.477Z,9.309018
2022-08-04T05:43:00.567Z,9.309031
2022-08-04T05:43:59.671Z,9.308992
2022-08-04T05:44:59.575Z,9.308941
2022-08-04T05:45:59.563Z,9.308977
2022-08-04T05:46:59.518Z,9.308971
2022-08-04T05:47:59.561Z,9.308989
2022-08-04T05:48:59.538Z,9.308970
2022-08-04T05:50:01.738Z,9.309036
2022-08-04T05:51:01.229Z,9.308977
2022-08-04T05:52:00.474Z,9.309031
2022-08-04T05:52:59.895Z,9.308987
2022-08-04T05:53:59.548Z,9.309052
2022-08-04T05:54:59.559Z,9.308993
2022-08-04T05:56:00.059Z,9.308889
2022-08-04T05:57:00.503Z,9.308933
2022-08-04T05:57:59.431Z,9.308958
2022-08-04T05:58:59.460Z,9.309070
2022-08-04T05:59:59.432Z,9.309084
2022-08-04T06:00:59.445Z,9.309136
2022-08-04T06:01:59.468Z,9.309128
2022-08-04T06:02:59.425Z,9.309042
2022-08-04T06:03:59.367Z,9.308998
2022-08-04T06:04:59.424Z,9.309022
2022-08-04T06:05:59.342Z,9.309040
2022-08-04T06:06:59.386Z,9.309052
2022-08-04T06:08:12.259Z,9.309045
2022-08-04T06:09:00.348Z,9.309118
2022-08-04T06:09:59.363Z,9.309056
2022-08-04T06:10:59.228Z,9.309080
2022-08-04T06:12:03.631Z,9.309161
2022-08-04T06:12:59.291Z,9.308992
2022-08-04T06:13:59.226Z,9.308955
2022-08-04T06:14:59.694Z,9.308985
2022-08-04T06:15:59.499Z,9.309046
2022-08-04T06:16:59.218Z,9.309034
2022-08-04T06:18:35.648Z,9.309085
2022-08-04T06:20:02.033Z,9.309308
2022-08-04T06:20:19.956Z,9.309201
2022-08-04T06:21:01.571Z,9.309107
2022-08-04T06:21:59.194Z,9.309092
2022-08-04T06:22:59.266Z,9.309106
2022-08-04T06:24:04.292Z,9.309101
2022-08-04T06:25:01.322Z,9.309114
2022-08-04T06:25:59.264Z,9.309045
2022-08-04T06:26:59.328Z,9.309123
2022-08-04T06:27:59.230Z,9.309102
2022-08-04T06:28:59.222Z,9.309090
2022-08-04T06:29:59.218Z,9.309085
2022-08-04T06:30:59.219Z,9.309047
2022-08-04T06:32:30.375Z,9.309090
2022-08-04T06:33:04.314Z,9.309031
2022-08-04T06:33:59.302Z,9.309003
2022-08-04T06:34:59.285Z,9.309044
2022-08-04T06:35:59.174Z,9.309061
2022-08-04T06:36:59.394Z,9.309046
2022-08-04T06:38:01.234Z,9.309011
2022-08-04T06:39:00.298Z,9.309135
2022-08-04T06:39:59.162Z,9.309028
2022-08-04T06:40:59.296Z,9.309009
2022-08-04T06:42:17.537Z,9.309082
2022-08-04T06:43:00.144Z,9.309111
2022-08-04T06:43:59.101Z,9.309069
2022-08-04T06:44:59.172Z,9.309052
2022-08-04T06:45:59.203Z,9.309029
2022-08-04T06:46:59.120Z,9.309027
2022-08-04T06:47:59.084Z,9.308995
2022-08-04T06:48:59.109Z,9.308978
2022-08-04T06:51:25.743Z,9.308985
2022-08-04T06:51:30.524Z,9.309017
2022-08-04T06:51:59.994Z,9.309074
2022-08-04T06:52:59.122Z,9.309119
2022-08-04T06:53:59.148Z,9.309116
2022-08-04T06:54:59.095Z,9.309039
2022-08-04T06:55:59.122Z,9.309035
2022-08-04T06:56:59.080Z,9.309071
2022-08-04T06:58:02.864Z,9.309043
2022-08-04T06:59:00.229Z,9.309064
2022-08-04T06:59:58.953Z,9.309099
2022-08-04T07:00:58.992Z,9.309140
2022-08-04T07:01:58.963Z,9.309097
2022-08-04T07:02:58.943Z,9.309132
2022-08-04T07:03:58.913Z,9.309125
2022-08-04T07:04:59.029Z,9.309160
2022-08-04T07:05:59.025Z,9.309100
2022-08-04T07:06:59.912Z,9.309181
2022-08-04T07:07:58.997Z,9.309128
2022-08-04T07:08:58.908Z,9.309050
2022-08-04T07:09:58.955Z,9.309035
2022-08-04T07:10:58.890Z,9.309071
2022-08-04T07:11:58.927Z,9.309108
2022-08-04T07:12:59.932Z,9.309029
2022-08-04T07:13:59.254Z,9.309202
2022-08-04T07:14:59.016Z,9.308992
2022-08-04T07:15:59.024Z,9.309033
2022-08-04T07:16:58.904Z,9.309153
2022-08-04T07:18:00.233Z,9.309129
2022-08-04T07:18:58.967Z,9.309126
2022-08-04T07:20:01.042Z,9.309145
2022-08-04T07:20:58.950Z,9.309254
2022-08-04T07:22:16.128Z,9.309525
2022-08-04T07:22:59.900Z,9.308924
2022-08-04T07:23:58.844Z,9.309005
2022-08-04T07:24:59.023Z,9.308971
2022-08-04T07:26:12.428Z,9.309070
2022-08-04T07:26:59.815Z,9.309128
2022-08-04T07:27:58.850Z,9.309023
2022-08-04T07:28:58.800Z,9.309071
2022-08-04T07:29:58.833Z,9.309186
2022-08-04T07:30:58.878Z,9.309118
2022-08-04T07:31:58.759Z,9.309115
2022-08-04T07:32:58.778Z,9.309042
2022-08-04T07:34:16.901Z,9.309175
2022-08-04T07:34:59.652Z,9.309114
2022-08-04T07:36:09.323Z,9.309038
2022-08-04T07:36:59.815Z,9.308902
2022-08-04T07:37:58.729Z,9.308977
2022-08-04T07:38:58.750Z,9.308874
2022-08-04T07:39:58.789Z,9.309052
2022-08-04T07:40:58.598Z,9.308965
2022-08-04T07:41:58.726Z,9.308737
2022-08-04T07:42:58.564Z,9.308955
2022-08-04T07:43:58.570Z,9.308825
2022-08-04T07:44:58.716Z,9.308775
2022-08-04T07:45:58.589Z,9.309044
2022-08-04T07:46:58.586Z,9.309157
2022-08-04T07:48:05.386Z,9.309204
2022-08-04T07:48:59.566Z,9.309007
2022-08-04T07:49:58.556Z,9.309185
2022-08-04T07:50:58.697Z,9.309069
2022-08-04T07:51:58.628Z,9.309127
2022-08-04T07:53:15.625Z,9.309147
2022-08-04T07:54:00.617Z,9.309078
2022-08-04T07:54:58.617Z,9.309032
2022-08-04T07:55:58.629Z,9.308949
2022-08-04T07:56:58.643Z,9.309132
2022-08-04T07:57:58.637Z,9.309288
2022-08-04T07:58:58.656Z,9.309161
2022-08-04T07:59:58.581Z,9.309116
2022-08-04T08:00:58.555Z,9.309097
2022-08-04T08:01:58.559Z,9.309012
2022-08-04T08:02:58.635Z,9.309060
2022-08-04T08:03:58.658Z,9.308973
2022-08-04T08:04:58.582Z,9.309097
2022-08-04T08:06:17.581Z,9.309023
2022-08-04T08:06:59.497Z,9.309034
2022-08-04T08:07:58.525Z,9.309047
2022-08-04T08:08:58.650Z,9.308983
2022-08-04T08:09:58.504Z,9.308958
2022-08-04T08:10:58.502Z,9.308959
2022-08-04T08:12:38.656Z,9.308992
2022-08-04T08:12:59.377Z,9.309013
2022-08-04T08:13:58.435Z,9.309000
2022-08-04T08:14:58.516Z,9.308975
2022-08-04T08:15:58.437Z,9.309020
2022-08-04T08:16:58.450Z,9.309025
2022-08-04T08:18:00.758Z,9.309011
2022-08-04T08:18:58.437Z,9.308963
2022-08-04T08:19:58.404Z,9.308982
2022-08-04T08:20:58.282Z,9.309011
2022-08-04T08:21:59.312Z,9.308986
2022-08-04T08:22:58.340Z,9.309035
2022-08-04T08:23:58.284Z,9.309131
2022-08-04T08:24:58.525Z,9.309078
2022-08-04T08:25:58.437Z,9.309056
2022-08-04T08:26:58.366Z,9.309108
2022-08-04T08:27:58.460Z,9.309085
2022-08-04T08:28:58.369Z,9.309093
2022-08-04T08:29:58.410Z,9.309080
2022-08-04T08:30:59.031Z,9.309133
2022-08-04T08:32:02.653Z,9.309093
2022-08-04T08:33:00.300Z,9.309062
2022-08-04T08:33:58.447Z,9.309063
2022-08-04T08:34:58.323Z,9.309046
2022-08-04T08:35:58.347Z,9.309071
2022-08-04T08:36:58.338Z,9.309052
2022-08-04T08:37:58.335Z,9.309072
2022-08-04T08:38:58.361Z,9.309048
2022-08-04T08:39:58.300Z,9.309074
2022-08-04T08:40:58.342Z,9.309115
2022-08-04T08:41:58.274Z,9.309121
2022-08-04T08:42:58.255Z,9.309168
2022-08-04T08:44:06.347Z,9.309124
2022-08-04T08:44:59.283Z,9.309150
2022-08-04T08:45:58.271Z,9.309069
2022-08-04T08:46:58.285Z,9.309140
2022-08-04T08:48:04.782Z,9.309105
2022-08-04T08:48:59.329Z,9.309103
2022-08-04T08:50:00.764Z,9.309082
2022-08-04T08:50:58.271Z,9.309073
2022-08-04T08:51:58.244Z,9.309108
2022-08-04T08:53:02.603Z,9.309103
2022-08-04T08:53:58.198Z,9.309073
2022-08-04T08:54:58.304Z,9.309097
2022-08-04T08:55:58.170Z,9.309046
2022-08-04T08:56:58.292Z,9.309134
2022-08-04T08:57:59.981Z,9.309149
2022-08-04T08:58:58.145Z,9.309090
2022-08-04T08:59:58.107Z,9.309104
2022-08-04T09:00:58.099Z,9.309128
2022-08-04T09:01:58.134Z,9.309120
2022-08-04T09:03:03.839Z,9.309072
2022-08-04T09:03:59.088Z,9.309105
2022-08-04T09:04:58.049Z,9.309088
2022-08-04T09:05:58.158Z,9.309135
2022-08-04T09:06:58.105Z,9.309078
2022-08-04T09:07:58.180Z,9.309077
2022-08-04T09:08:58.088Z,9.309045
2022-08-04T09:09:58.102Z,9.309027
2022-08-04T09:10:58.138Z,9.309003
2022-08-04T09:11:58.172Z,9.309044
2022-08-04T09:12:58.147Z,9.309125
2022-08-04T09:13:58.127Z,9.309118
2022-08-04T09:14:58.060Z,9.309076
2022-08-04T09:15:58.152Z,9.309080
2022-08-04T09:16:58.091Z,9.309044
2022-08-04T09:17:58.133Z,9.309012
2022-08-04T09:18:58.047Z,9.309028
2022-08-04T09:19:58.038Z,9.308969
2022-08-04T09:20:58.009Z,9.309031
2022-08-04T09:21:58.008Z,9.309033
2022-08-04T09:22:58.114Z,9.309134
2022-08-04T09:23:58.013Z,9.309111
2022-08-04T09:24:57.949Z,9.309055
2022-08-04T09:25:57.952Z,9.309151
2022-08-04T09:27:00.148Z,9.309098
2022-08-04T09:27:59.845Z,9.309134
2022-08-04T09:28:57.861Z,9.309143
2022-08-04T09:29:57.883Z,9.309156
2022-08-04T09:30:57.964Z,9.309154
2022-08-04T09:32:06.849Z,9.309151
2022-08-04T09:32:58.952Z,9.309141
2022-08-04T09:33:59.266Z,9.309077
2022-08-04T09:35:03.701Z,9.309064
2022-08-04T09:35:58.867Z,9.309026
2022-08-04T09:36:57.871Z,9.308990
2022-08-04T09:37:57.899Z,9.308970
2022-08-04T09:38:58.082Z,9.309029
2022-08-04T09:39:57.871Z,9.309068
2022-08-04T09:40:58.734Z,9.308976
2022-08-04T09:41:57.839Z,9.308987
2022-08-04T09:42:57.814Z,9.308990
2022-08-04T09:44:43.163Z,9.309014
2022-08-04T09:45:05.783Z,9.308983
2022-08-04T09:45:59.830Z,9.309035
2022-08-04T09:46:59.737Z,9.309116
2022-08-04T09:47:57.853Z,9.309150
2022-08-04T09:48:57.901Z,9.309073
2022-08-04T09:49:57.831Z,9.309049
2022-08-04T09:50:58.791Z,9.309089
2022-08-04T09:51:59.594Z,9.308964
2022-08-04T09:52:58.768Z,9.308936
2022-08-04T09:53:57.831Z,9.308981
2022-08-04T09:54:57.850Z,9.309045
2022-08-04T09:56:01.182Z,9.309041
2022-08-04T09:56:59.845Z,9.309052
2022-08-04T09:57:57.858Z,9.309103
2022-08-04T09:58:57.754Z,9.309084
2022-08-04T09:59:57.914Z,9.309064
2022-08-04T10:00:57.760Z,9.309074
2022-08-04T10:01:58.975Z,9.309055
2022-08-04T10:02:57.799Z,9.309223
2022-08-04T10:03:57.840Z,9.309250
2022-08-04T10:04:57.824Z,9.309175
2022-08-04T10:05:57.703Z,9.309088
2022-08-04T10:06:57.798Z,9.309123
2022-08-04T10:07:59.523Z,9.308984
2022-08-04T10:08:58.706Z,9.308934
2022-08-04T10:09:57.718Z,9.309005
2022-08-04T10:10:57.654Z,9.309076
2022-08-04T10:11:57.554Z,9.309081
2022-08-04T10:12:57.558Z,9.309157
2022-08-04T10:13:57.598Z,9.309011
2022-08-04T10:14:57.591Z,9.309026
2022-08-04T10:15:57.640Z,9.309019
2022-08-04T10:16:57.548Z,9.308858
2022-08-04T10:17:57.672Z,9.308874
2022-08-04T10:18:57.717Z,9.308887
2022-08-04T10:19:58.513Z,9.308960
2022-08-04T10:21:02.862Z,9.309051
2022-08-04T10:22:29.794Z,9.309070
2022-08-04T10:23:11.072Z,9.309214
2022-08-04T10:24:00.124Z,9.309034
2022-08-04T10:24:57.669Z,9.309073
2022-08-04T10:26:07.667Z,9.309007
2022-08-04T10:26:59.524Z,9.309001
2022-08-04T10:27:57.663Z,9.308906
2022-08-04T10:28:57.595Z,9.308958
2022-08-04T10:29:57.568Z,9.309044
2022-08-04T10:30:57.595Z,9.309001
2022-08-04T10:31:57.872Z,9.308938
2022-08-04T10:32:57.566Z,9.309141
2022-08-04T10:33:57.494Z,9.309045
2022-08-04T10:34:57.514Z,9.308915
2022-08-04T10:35:57.534Z,9.308978
2022-08-04T10:36:57.622Z,9.309014
2022-08-04T10:38:01.446Z,9.309046
2022-08-04T10:38:57.492Z,9.308986
2022-08-04T10:39:57.521Z,9.309029
2022-08-04T10:40:57.438Z,9.309002
2022-08-04T10:41:59.753Z,9.309011
2022-08-04T10:42:57.518Z,9.309039
2022-08-04T10:43:57.397Z,9.308990
2022-08-04T10:44:58.478Z,9.308991
2022-08-04T10:45:58.228Z,9.308981
2022-08-04T10:46:57.452Z,9.309036
2022-08-04T10:47:57.579Z,9.309010
2022-08-04T10:48:57.421Z,9.309009
2022-08-04T10:49:57.515Z,9.309031
2022-08-04T10:50:58.323Z,9.309072
2022-08-04T10:51:59.613Z,9.309099
2022-08-04T10:52:57.499Z,9.309028
2022-08-04T10:53:57.385Z,9.309008
2022-08-04T10:54:57.399Z,9.308999
2022-08-04T10:56:06.921Z,9.309007
2022-08-04T10:56:58.416Z,9.308976
2022-08-04T10:57:57.348Z,9.308989
2022-08-04T10:58:57.397Z,9.309025
2022-08-04T10:59:59.071Z,9.309011
2022-08-04T11:00:58.354Z,9.309019
2022-08-04T11:02:02.659Z,9.309003
2022-08-04T11:02:58.258Z,9.309013
2022-08-04T11:03:57.294Z,9.309012
2022-08-04T11:04:57.293Z,9.309009
2022-08-04T11:05:57.229Z,9.309018
2022-08-04T11:06:57.249Z,9.309047
2022-08-04T11:07:57.139Z,9.309062
2022-08-04T11:08:57.207Z,9.309051
2022-08-04T11:09:57.217Z,9.309065
2022-08-04T11:10:57.114Z,9.309011
2022-08-04T11:12:01.300Z,9.308981
2022-08-04T11:12:59.559Z,9.308967
2022-08-04T11:13:57.340Z,9.308985
2022-08-04T11:14:57.353Z,9.308995
2022-08-04T11:15:57.264Z,9.309002
2022-08-04T11:16:57.234Z,9.308947
2022-08-04T11:17:57.237Z,9.308996
2022-08-04T11:18:57.233Z,9.309052
2022-08-04T11:20:07.676Z,9.309011
2022-08-04T11:20:59.148Z,9.309009
2022-08-04T11:21:57.110Z,9.309003
2022-08-04T11:22:57.281Z,9.308995
2022-08-04T11:23:57.200Z,9.309026
2022-08-04T11:24:57.275Z,9.308971
2022-08-04T11:25:57.225Z,9.308998
2022-08-04T11:26:57.244Z,9.308944
2022-08-04T11:27:57.182Z,9.308972
2022-08-04T11:29:03.704Z,9.308953
2022-08-04T11:29:59.234Z,9.308969
2022-08-04T11:30:57.165Z,9.309029
2022-08-04T11:31:57.173Z,9.308962
2022-08-04T11:32:57.160Z,9.308961
2022-08-04T11:33:57.220Z,9.308990
2022-08-04T11:34:57.330Z,9.308893
2022-08-04T11:35:57.220Z,9.308863
2022-08-04T11:36:57.146Z,9.308900
2022-08-04T11:37:57.025Z,9.308888
2022-08-04T11:38:57.090Z,9.308880
2022-08-04T11:39:57.018Z,9.308904
2022-08-04T11:41:02.679Z,9.308849
2022-08-04T11:41:58.011Z,9.308930
2022-08-04T11:42:57.077Z,9.308994
2022-08-04T11:44:03.147Z,9.308984